createdAt,value
2018-09-23T00:02:23.133Z,1.50
2018-09-23T00:04:52.085Z,1.70
2018-09-23T00:07:20.975Z,1.50
2018-09-23T00:09:49.902Z,1.53
2018-09-23T00:12:18.995Z,1.50
2018-09-23T00:14:48.489Z,1.60
2018-09-23T00:17:17.620Z,1.40
2018-09-23T00:19:46.502Z,1.40
2018-09-23T00:22:15.598Z,1.90
2018-09-23T00:24:44.787Z,1.67
2018-09-23T00:27:14.193Z,1.80
2018-09-23T00:29:48.414Z,1.47
2018-09-23T00:32:17.753Z,1.70
2018-09-23T00:34:51.998Z,1.10
2018-09-23T00:37:21.805Z,1.00
2018-09-23T00:39:50.906Z,1.83
2018-09-23T00:42:20.078Z,1.60
2018-09-23T00:44:49.208Z,1.30
2018-09-23T00:47:18.449Z,1.90
2018-09-23T00:49:47.404Z,1.40
2018-09-23T00:52:16.170Z,1.50
2018-09-23T00:54:45.419Z,1.30
2018-09-23T00:57:14.465Z,1.90
2018-09-23T00:59:46.307Z,1.70
2018-09-23T01:02:16.211Z,1.70
2018-09-23T01:04:45.366Z,1.37
2018-09-23T01:07:14.398Z,1.53
2018-09-23T01:09:43.373Z,1.60
2018-09-23T01:12:12.699Z,1.67
2018-09-23T01:14:41.866Z,1.60
2018-09-23T01:17:10.921Z,1.40
2018-09-23T01:19:39.896Z,1.43
2018-09-23T01:22:09.054Z,1.90
2018-09-23T01:24:43.550Z,1.93
2018-09-23T01:27:12.369Z,2.03
2018-09-23T01:29:41.836Z,1.97
2018-09-23T01:32:10.900Z,1.43
2018-09-23T01:34:40.085Z,1.70
2018-09-23T01:37:10.074Z,1.57
2018-09-23T01:39:39.601Z,1.67
2018-09-23T01:42:08.633Z,1.60
2018-09-23T01:44:38.083Z,1.50
2018-09-23T01:47:07.445Z,1.60
2018-09-23T01:49:36.415Z,1.50
2018-09-23T01:52:05.421Z,1.37
2018-09-23T01:54:34.817Z,1.73
2018-09-23T01:57:03.705Z,1.30
2018-09-23T01:59:32.769Z,1.53
2018-09-23T02:02:01.798Z,1.50
2018-09-23T02:04:31.122Z,1.73
2018-09-23T02:07:00.369Z,1.27
2018-09-23T02:09:29.757Z,1.60
2018-09-23T02:11:58.971Z,1.77
2018-09-23T02:14:28.162Z,1.80
2018-09-23T02:16:57.613Z,1.47
2018-09-23T02:19:26.569Z,1.60
2018-09-23T02:21:55.614Z,1.77
2018-09-23T02:24:24.963Z,1.40
2018-09-23T02:26:54.149Z,1.83
2018-09-23T02:29:23.056Z,1.80
2018-09-23T02:31:52.248Z,1.90
2018-09-23T02:34:21.453Z,1.50
2018-09-23T02:36:50.485Z,1.57
2018-09-23T02:39:19.513Z,1.40
2018-09-23T02:41:48.708Z,1.50
2018-09-23T02:44:18.406Z,1.70
2018-09-23T02:46:47.617Z,1.97
2018-09-23T02:49:16.619Z,1.77
2018-09-23T02:51:45.569Z,1.67
2018-09-23T02:54:15.232Z,1.53
2018-09-23T02:56:44.229Z,1.73
2018-09-23T02:59:13.246Z,1.43
2018-09-23T03:01:42.298Z,1.57
2018-09-23T03:04:11.291Z,1.60
2018-09-23T03:06:40.942Z,1.27
2018-09-23T03:09:09.982Z,1.57
2018-09-23T03:11:39.516Z,1.60
2018-09-23T03:14:09.555Z,1.50
2018-09-23T03:16:39.617Z,1.87
2018-09-23T03:19:08.864Z,1.57
2018-09-23T03:21:38.135Z,1.77
2018-09-23T03:24:07.437Z,1.20
2018-09-23T03:26:36.461Z,1.50
2018-09-23T03:29:05.673Z,1.83
2018-09-23T03:31:34.831Z,1.40
2018-09-23T03:34:03.886Z,1.50
2018-09-23T03:36:32.965Z,1.30
2018-09-23T03:39:02.430Z,1.80
2018-09-23T03:41:31.707Z,1.50
2018-09-23T03:44:00.908Z,1.10
2018-09-23T03:46:30.042Z,1.57
2018-09-23T03:48:59.390Z,1.50
2018-09-23T03:51:28.861Z,1.50
2018-09-23T03:53:57.943Z,1.30
2018-09-23T03:56:27.102Z,1.57
2018-09-23T03:58:56.352Z,1.57
2018-09-23T04:01:25.514Z,1.77
2018-09-23T04:03:54.954Z,1.13
2018-09-23T04:06:24.008Z,1.27
2018-09-23T04:08:52.977Z,1.63
2018-09-23T04:11:22.045Z,1.30
2018-09-23T04:13:51.124Z,1.60
2018-09-23T04:16:20.293Z,1.27
2018-09-23T04:18:49.383Z,1.40
2018-09-23T04:21:18.676Z,1.20
2018-09-23T04:23:47.698Z,1.53
2018-09-23T04:26:17.132Z,1.30
2018-09-23T04:28:46.189Z,1.40
2018-09-23T04:31:15.266Z,1.60
2018-09-23T04:33:44.319Z,1.40
2018-09-23T04:36:13.878Z,1.37
2018-09-23T04:38:42.911Z,1.70
2018-09-23T04:41:12.017Z,1.13
2018-09-23T04:43:41.146Z,1.30
2018-09-23T04:46:10.370Z,1.20
2018-09-23T04:48:39.494Z,1.20
2018-09-23T04:51:08.797Z,1.30
2018-09-23T04:53:37.922Z,1.10
2018-09-23T04:56:07.246Z,1.23
2018-09-23T04:58:36.398Z,1.10
2018-09-23T05:01:05.994Z,1.17
2018-09-23T05:03:35.536Z,1.00
2018-09-23T05:06:04.770Z,1.30
2018-09-23T05:08:33.891Z,1.30
2018-09-23T05:11:03.340Z,1.33
2018-09-23T05:13:32.535Z,1.50
2018-09-23T05:16:02.794Z,1.47
2018-09-23T05:18:32.121Z,1.60
2018-09-23T05:21:01.576Z,1.00
2018-09-23T05:23:30.643Z,1.20
2018-09-23T05:25:59.770Z,1.33
2018-09-23T05:28:29.144Z,1.10
2018-09-23T05:30:58.602Z,1.17
2018-09-23T05:33:28.001Z,0.80
2018-09-23T05:35:57.402Z,1.10
2018-09-23T05:38:27.360Z,1.10
2018-09-23T05:40:56.754Z,1.40
2018-09-23T05:43:26.143Z,1.40
2018-09-23T05:45:55.252Z,1.10
2018-09-23T05:48:24.125Z,0.90
2018-09-23T05:50:53.170Z,1.00
2018-09-23T05:53:22.245Z,0.90
2018-09-23T05:55:51.789Z,1.40
2018-09-23T05:58:20.822Z,0.90
2018-09-23T06:00:52.323Z,1.00
2018-09-23T06:03:21.487Z,1.30
2018-09-23T06:05:50.856Z,1.27
2018-09-23T06:08:20.026Z,0.90
2018-09-23T06:10:49.416Z,0.90
2018-09-23T06:13:18.309Z,0.87
2018-09-23T06:15:48.207Z,1.10
2018-09-23T06:18:17.651Z,1.10
2018-09-23T06:20:47.153Z,1.00
2018-09-23T06:23:16.235Z,0.97
2018-09-23T06:25:45.789Z,0.87
2018-09-23T06:28:14.849Z,1.40
2018-09-23T06:30:43.773Z,0.93
2018-09-23T06:33:13.018Z,0.80
2018-09-23T06:35:42.390Z,0.90
2018-09-23T06:38:11.500Z,0.73
2018-09-23T06:40:40.618Z,0.93
2018-09-23T06:43:10.022Z,0.93
2018-09-23T06:45:39.501Z,0.90
2018-09-23T06:48:08.957Z,0.90
2018-09-23T06:50:37.941Z,1.00
2018-09-23T06:53:07.048Z,1.00
2018-09-23T06:55:36.793Z,1.03
2018-09-23T06:58:06.014Z,0.87
2018-09-23T07:00:35.394Z,0.90
2018-09-23T07:03:04.865Z,0.90
2018-09-23T07:05:34.082Z,0.70
2018-09-23T07:08:03.124Z,0.80
2018-09-23T07:10:32.407Z,0.73
2018-09-23T07:13:01.254Z,0.73
2018-09-23T07:15:30.704Z,0.90
2018-09-23T07:18:00.002Z,1.00
2018-09-23T07:20:29.114Z,0.90
2018-09-23T07:22:58.311Z,0.90
2018-09-23T07:25:27.432Z,0.70
2018-09-23T07:27:56.660Z,0.90
2018-09-23T07:30:25.809Z,0.90
2018-09-23T07:32:54.827Z,0.80
2018-09-23T07:35:24.053Z,0.80
2018-09-23T07:37:53.048Z,0.90
2018-09-23T07:40:22.066Z,0.60
2018-09-23T07:42:51.166Z,0.83
2018-09-23T07:45:20.372Z,0.77
2018-09-23T07:47:49.294Z,0.70
2018-09-23T07:50:18.306Z,0.70
2018-09-23T07:52:47.439Z,0.83
2018-09-23T07:55:16.421Z,0.70
2018-09-23T07:57:46.176Z,0.50
2018-09-23T08:00:15.247Z,0.70
2018-09-23T08:02:44.536Z,0.70
2018-09-23T08:05:13.849Z,1.30
2018-09-23T08:07:43.141Z,0.70
2018-09-23T08:10:12.226Z,0.60
2018-09-23T08:12:41.584Z,0.80
2018-09-23T08:15:10.519Z,1.20
2018-09-23T08:17:39.812Z,1.20
2018-09-23T08:20:08.850Z,1.10
2018-09-23T08:22:37.830Z,1.33
2018-09-23T08:25:07.318Z,1.70
2018-09-23T08:27:36.454Z,1.77
2018-09-23T08:30:06.130Z,2.00
2018-09-23T08:32:35.286Z,1.97
2018-09-23T08:35:04.585Z,1.30
2018-09-23T08:37:33.607Z,1.97
2018-09-23T08:40:02.523Z,2.10
2018-09-23T08:42:31.553Z,2.03
2018-09-23T08:45:01.061Z,1.67
2018-09-23T08:47:30.469Z,1.70
2018-09-23T08:49:59.464Z,1.17
2018-09-23T08:52:28.713Z,1.00
2018-09-23T08:54:57.882Z,1.10
2018-09-23T08:57:27.062Z,2.17
2018-09-23T08:59:56.399Z,2.00
2018-09-23T09:02:25.960Z,2.07
2018-09-23T09:04:54.913Z,1.93
2018-09-23T09:07:24.261Z,2.27
2018-09-23T09:09:53.568Z,2.50
2018-09-23T09:12:22.626Z,2.53
2018-09-23T09:14:51.559Z,2.20
2018-09-23T09:17:20.645Z,2.50
2018-09-23T09:19:49.741Z,2.60
2018-09-23T09:22:18.791Z,2.90
2018-09-23T09:24:48.153Z,2.97
2018-09-23T09:27:17.802Z,3.10
2018-09-23T09:29:47.105Z,2.92
2018-09-23T09:32:16.012Z,3.58
2018-09-23T09:34:44.989Z,3.45
2018-09-23T09:37:14.143Z,3.67
2018-09-23T09:39:43.262Z,2.70
2018-09-23T09:42:12.415Z,1.85
2018-09-23T09:44:42.681Z,2.35
2018-09-23T09:47:11.773Z,2.70
2018-09-23T09:49:40.797Z,2.52
2018-09-23T09:52:10.806Z,2.00
2018-09-23T09:54:39.825Z,2.70
2018-09-23T09:57:08.869Z,1.80
2018-09-23T09:59:38.053Z,1.92
2018-09-23T10:02:07.314Z,1.42
2018-09-23T10:04:36.677Z,1.90
2018-09-23T10:07:06.193Z,1.20
2018-09-23T10:09:35.339Z,1.40
2018-09-23T10:12:04.881Z,1.40
2018-09-23T10:14:33.950Z,1.10
2018-09-23T10:17:03.202Z,1.00
2018-09-23T10:19:32.201Z,1.37
2018-09-23T10:22:01.206Z,1.40
2018-09-23T10:24:30.059Z,1.50
2018-09-23T10:26:59.163Z,1.40
2018-09-23T10:29:28.313Z,1.40
2018-09-23T10:31:57.345Z,1.30
2018-09-23T10:34:26.820Z,1.40
2018-09-23T10:36:55.975Z,1.20
2018-09-23T10:39:24.928Z,1.03
2018-09-23T10:41:53.894Z,1.93
2018-09-23T10:44:23.994Z,2.37
2018-09-23T10:46:52.949Z,1.47
2018-09-23T10:49:21.929Z,1.10
2018-09-23T10:51:50.873Z,1.20
2018-09-23T10:54:20.248Z,1.30
2018-09-23T10:56:49.533Z,1.13
2018-09-23T10:59:18.521Z,1.13
2018-09-23T11:01:47.776Z,0.90
2018-09-23T11:04:16.788Z,0.80
2018-09-23T11:06:45.836Z,0.90
2018-09-23T11:09:14.806Z,1.00
2018-09-23T11:11:43.771Z,0.80
2018-09-23T11:14:12.830Z,0.90
2018-09-23T11:16:42.135Z,0.60
2018-09-23T11:19:11.127Z,0.70
2018-09-23T11:21:40.024Z,0.70
2018-09-23T11:24:09.285Z,0.90
2018-09-23T11:26:38.694Z,0.50
2018-09-23T11:29:07.781Z,0.70
2018-09-23T11:31:36.884Z,0.73
2018-09-23T11:34:05.894Z,0.70
2018-09-23T11:36:35.194Z,0.70
2018-09-23T11:39:05.961Z,0.70
2018-09-23T11:41:35.020Z,0.80
2018-09-23T11:44:04.138Z,0.67
2018-09-23T11:46:33.329Z,0.80
2018-09-23T11:49:02.358Z,0.70
2018-09-23T11:51:31.360Z,0.70
2018-09-23T11:54:00.247Z,0.60
2018-09-23T11:56:29.617Z,0.67
2018-09-23T11:58:58.763Z,0.70
2018-09-23T12:01:27.950Z,0.70
2018-09-23T12:03:57.002Z,0.70
2018-09-23T12:06:26.216Z,0.80
2018-09-23T12:08:55.308Z,0.70
2018-09-23T12:11:24.176Z,0.70
2018-09-23T12:13:53.325Z,0.70
2018-09-23T12:16:22.470Z,0.80
2018-09-23T12:18:51.547Z,0.70
2018-09-23T12:21:20.532Z,0.70
2018-09-23T12:23:49.612Z,0.50
2018-09-23T12:26:18.893Z,0.80
2018-09-23T12:28:48.186Z,0.50
2018-09-23T12:31:18.189Z,0.80
2018-09-23T12:33:47.312Z,0.67
2018-09-23T12:36:16.334Z,0.70
2018-09-23T12:38:45.775Z,0.50
2018-09-23T12:41:15.013Z,0.50
2018-09-23T12:43:44.325Z,0.60
2018-09-23T12:46:13.602Z,0.60
2018-09-23T12:48:42.762Z,0.60
2018-09-23T12:51:12.105Z,0.60
2018-09-23T12:53:41.168Z,0.50
2018-09-23T12:56:10.457Z,0.80
2018-09-23T12:58:39.855Z,0.60
2018-09-23T13:01:08.983Z,0.80
2018-09-23T13:03:37.975Z,0.60
2018-09-23T13:06:07.174Z,0.60
2018-09-23T13:08:36.355Z,0.60
2018-09-23T13:11:05.531Z,0.70
2018-09-23T13:13:34.599Z,0.50
2018-09-23T13:16:03.666Z,0.60
2018-09-23T13:18:32.687Z,0.67
2018-09-23T13:21:01.952Z,0.70
2018-09-23T13:23:30.871Z,0.60
2018-09-23T13:25:59.841Z,0.70
2018-09-23T13:28:29.290Z,0.57
2018-09-23T13:30:58.513Z,0.60
2018-09-23T13:33:27.473Z,0.70
2018-09-23T13:35:56.529Z,0.67
2018-09-23T13:38:25.697Z,0.47
2018-09-23T13:40:54.728Z,0.50
2018-09-23T13:43:23.782Z,0.70
2018-09-23T13:45:52.867Z,0.50
2018-09-23T13:48:22.163Z,0.57
2018-09-23T13:50:51.509Z,0.57
2018-09-23T13:53:20.585Z,0.47
2018-09-23T13:55:49.685Z,0.50
2018-09-23T13:58:18.910Z,0.60
2018-09-23T14:00:47.921Z,0.70
2018-09-23T14:03:17.173Z,0.60
2018-09-23T14:05:46.285Z,0.70
2018-09-23T14:08:15.597Z,0.60
2018-09-23T14:10:45.480Z,0.60
2018-09-23T14:13:14.710Z,0.57
2018-09-23T14:15:44.031Z,0.50
2018-09-23T14:18:13.570Z,0.60
2018-09-23T14:20:43.205Z,0.70
2018-09-23T14:23:12.959Z,0.63
2018-09-23T14:25:43.231Z,0.67
2018-09-23T14:28:12.904Z,0.50
2018-09-23T14:30:44.085Z,0.50
2018-09-23T14:33:13.814Z,0.50
2018-09-23T14:35:42.788Z,0.60
2018-09-23T14:38:12.613Z,0.60
2018-09-23T14:40:41.768Z,0.50
2018-09-23T14:43:11.378Z,0.60
2018-09-23T14:45:40.964Z,0.60
2018-09-23T14:48:10.785Z,0.60
2018-09-23T14:50:40.197Z,0.50
2018-09-23T14:53:09.582Z,0.50
2018-09-23T14:55:38.792Z,0.50
2018-09-23T14:58:08.130Z,0.50
2018-09-23T15:00:37.647Z,0.50
2018-09-23T15:03:07.337Z,0.50
2018-09-23T15:05:36.654Z,0.60
2018-09-23T15:08:06.073Z,0.60
2018-09-23T15:10:35.139Z,0.60
2018-09-23T15:13:04.237Z,0.57
2018-09-23T15:15:33.309Z,0.50
2018-09-23T15:18:02.871Z,0.40
2018-09-23T15:20:32.313Z,0.50
2018-09-23T15:23:01.571Z,0.73
2018-09-23T15:25:30.808Z,0.60
2018-09-23T15:28:00.619Z,0.80
2018-09-23T15:30:29.720Z,0.60
2018-09-23T15:32:59.185Z,0.60
2018-09-23T15:35:28.139Z,0.37
2018-09-23T15:37:57.495Z,0.50
2018-09-23T15:40:28.321Z,0.60
2018-09-23T15:42:58.989Z,0.50
2018-09-23T15:45:29.997Z,0.50
2018-09-23T15:48:00.740Z,0.60
2018-09-23T15:50:30.253Z,0.50
2018-09-23T15:52:59.549Z,0.60
2018-09-23T15:55:30.079Z,0.57
2018-09-23T15:58:01.938Z,0.50
2018-09-23T16:00:32.995Z,0.60
2018-09-23T16:03:02.378Z,0.63
2018-09-23T16:05:33.395Z,0.50
2018-09-23T16:08:03.936Z,0.57
2018-09-23T16:10:37.455Z,0.50
2018-09-23T16:13:08.538Z,0.50
2018-09-23T16:15:40.156Z,0.50
2018-09-23T16:18:10.314Z,0.50
2018-09-23T16:20:39.307Z,0.53
2018-09-23T16:23:09.127Z,0.50
2018-09-23T16:25:38.276Z,0.70
2018-09-23T16:28:07.420Z,0.60
2018-09-23T16:30:36.658Z,2.90
2018-09-23T16:33:05.884Z,2.37
2018-09-23T16:35:35.917Z,2.60
2018-09-23T16:38:06.111Z,1.70
2018-09-23T16:40:36.990Z,1.40
2018-09-23T16:43:06.441Z,1.37
2018-09-23T16:45:35.825Z,1.07
2018-09-23T16:48:05.071Z,0.87
2018-09-23T16:50:34.394Z,0.60
2018-09-23T16:53:04.322Z,0.60
2018-09-23T16:55:33.661Z,0.50
2018-09-23T16:58:02.645Z,0.60
2018-09-23T17:00:31.948Z,0.67
2018-09-23T17:03:01.829Z,0.60
2018-09-23T17:05:31.523Z,0.40
2018-09-23T17:08:00.552Z,0.50
2018-09-23T17:10:29.946Z,0.50
2018-09-23T17:12:58.884Z,0.50
2018-09-23T17:15:27.792Z,0.50
2018-09-23T17:17:56.909Z,0.47
2018-09-23T17:20:26.068Z,0.57
2018-09-23T17:22:55.716Z,0.60
2018-09-23T17:25:25.127Z,0.57
2018-09-23T17:27:54.906Z,0.60
2018-09-23T17:30:24.685Z,0.60
2018-09-23T17:32:55.213Z,0.57
2018-09-23T17:35:24.533Z,0.57
2018-09-23T17:37:54.007Z,0.60
2018-09-23T17:40:23.193Z,0.70
2018-09-23T17:42:53.310Z,0.70
2018-09-23T17:45:22.357Z,1.10
2018-09-23T17:47:51.823Z,1.10
2018-09-23T17:50:21.214Z,1.33
2018-09-23T17:52:50.210Z,1.40
2018-09-23T17:55:19.540Z,1.20
2018-09-23T17:57:48.722Z,1.40
2018-09-23T18:00:17.785Z,1.40
2018-09-23T18:02:46.838Z,1.20
2018-09-23T18:05:16.275Z,1.40
2018-09-23T18:07:45.720Z,1.43
2018-09-23T18:10:15.990Z,1.10
2018-09-23T18:12:45.381Z,1.40
2018-09-23T18:15:14.660Z,0.90
2018-09-23T18:17:43.886Z,1.03
2018-09-23T18:20:13.091Z,1.20
2018-09-23T18:22:42.518Z,1.33
2018-09-23T18:25:11.811Z,1.60
2018-09-23T18:27:40.939Z,1.37
2018-09-23T18:30:10.019Z,1.03
2018-09-23T18:32:39.244Z,1.10
2018-09-23T18:35:08.377Z,1.03
2018-09-23T18:37:37.605Z,1.00
2018-09-23T18:40:07.325Z,0.90
2018-09-23T18:42:36.617Z,0.90
2018-09-23T18:45:05.482Z,0.60
2018-09-23T18:47:34.830Z,0.60
2018-09-23T18:50:04.286Z,0.70
2018-09-23T18:52:33.362Z,0.60
2018-09-23T18:55:07.721Z,0.47
2018-09-23T18:57:36.959Z,0.57
2018-09-23T19:00:06.466Z,0.60
2018-09-23T19:02:35.877Z,0.70
2018-09-23T19:05:05.179Z,0.57
2018-09-23T19:07:34.694Z,0.50
2018-09-23T19:10:03.826Z,0.77
2018-09-23T19:12:33.325Z,0.53
2018-09-23T19:15:02.427Z,0.50
2018-09-23T19:17:31.866Z,0.63
2018-09-23T19:20:06.540Z,0.60
2018-09-23T19:22:40.836Z,0.63
2018-09-23T19:25:10.534Z,0.50
2018-09-23T19:27:39.536Z,0.60
2018-09-23T19:30:08.961Z,0.60
2018-09-23T19:32:38.247Z,0.60
2018-09-23T19:35:07.833Z,0.70
2018-09-23T19:37:37.357Z,0.70
2018-09-23T19:40:06.458Z,0.77
2018-09-23T19:42:35.797Z,0.60
2018-09-23T19:45:05.178Z,0.70
2018-09-23T19:47:34.229Z,0.80
2018-09-23T19:50:03.533Z,1.00
2018-09-23T19:52:32.805Z,0.80
2018-09-23T19:55:02.513Z,1.07
2018-09-23T19:57:31.813Z,1.10
2018-09-23T20:00:01.054Z,1.07
2018-09-23T20:02:30.719Z,0.90
2018-09-23T20:04:59.601Z,1.00
2018-09-23T20:07:28.938Z,1.20
2018-09-23T20:09:58.020Z,0.97
2018-09-23T20:12:27.027Z,1.00
2018-09-23T20:14:56.249Z,0.77
2018-09-23T20:17:25.352Z,0.90
2018-09-23T20:19:54.605Z,0.70
2018-09-23T20:22:23.985Z,0.70
2018-09-23T20:24:53.203Z,0.90
2018-09-23T20:27:22.207Z,0.90
2018-09-23T20:29:51.450Z,1.00
2018-09-23T20:32:20.791Z,0.80
2018-09-23T20:34:49.784Z,0.83
2018-09-23T20:37:19.009Z,0.70
2018-09-23T20:39:48.614Z,0.87
2018-09-23T20:42:17.592Z,0.70
2018-09-23T20:44:46.709Z,0.73
2018-09-23T20:47:15.628Z,0.90
2018-09-23T20:49:44.483Z,1.03
2018-09-23T20:52:13.592Z,0.87
2018-09-23T20:54:42.674Z,0.90
2018-09-23T20:57:11.650Z,0.83
2018-09-23T20:59:41.004Z,0.60
2018-09-23T21:02:10.350Z,0.50
2018-09-23T21:04:39.757Z,0.60
2018-09-23T21:07:09.245Z,0.73
2018-09-23T21:09:38.782Z,0.60
2018-09-23T21:12:08.479Z,0.73
2018-09-23T21:14:37.867Z,0.83
2018-09-23T21:17:06.923Z,0.70
2018-09-23T21:19:36.237Z,0.63
2018-09-23T21:22:05.648Z,0.60
2018-09-23T21:24:35.097Z,0.90
2018-09-23T21:27:04.833Z,0.70
2018-09-23T21:29:34.126Z,0.90
2018-09-23T21:32:03.305Z,0.70
2018-09-23T21:34:32.484Z,0.90
2018-09-23T21:37:01.972Z,0.87
2018-09-23T21:39:31.017Z,0.60
2018-09-23T21:41:59.905Z,0.90
2018-09-23T21:44:29.230Z,0.90
2018-09-23T21:46:58.498Z,1.00
2018-09-23T21:49:28.170Z,0.90
2018-09-23T21:51:57.486Z,0.73
2018-09-23T21:54:27.237Z,1.13
2018-09-23T21:56:56.337Z,0.70
2018-09-23T21:59:25.416Z,0.80
2018-09-23T22:01:54.497Z,0.80
2018-09-23T22:04:23.925Z,0.70
2018-09-23T22:06:52.997Z,0.80
2018-09-23T22:09:22.199Z,0.60
2018-09-23T22:11:51.238Z,0.70
2018-09-23T22:14:20.323Z,0.90
2018-09-23T22:16:49.434Z,1.00
2018-09-23T22:19:18.953Z,0.90
2018-09-23T22:21:48.044Z,0.80
2018-09-23T22:24:17.345Z,0.70
2018-09-23T22:26:46.648Z,0.70
2018-09-23T22:29:15.769Z,0.63
2018-09-23T22:31:45.214Z,0.80
2018-09-23T22:34:14.639Z,0.60
2018-09-23T22:36:43.836Z,0.40
2018-09-23T22:39:13.262Z,0.50
2018-09-23T22:41:42.315Z,0.63
2018-09-23T22:44:11.425Z,0.60
2018-09-23T22:46:40.746Z,0.60
2018-09-23T22:49:10.147Z,0.67
2018-09-23T22:51:39.412Z,0.73
2018-09-23T22:54:08.757Z,0.70
2018-09-23T22:56:38.025Z,0.60
2018-09-23T22:59:07.385Z,0.60
2018-09-23T23:01:36.418Z,0.63
2018-09-23T23:04:05.437Z,0.70
2018-09-23T23:06:34.650Z,0.50
2018-09-23T23:09:04.095Z,0.50
2018-09-23T23:11:33.244Z,0.60
2018-09-23T23:14:02.265Z,0.50
2018-09-23T23:16:31.360Z,0.40
2018-09-23T23:19:00.896Z,0.50
2018-09-23T23:21:30.249Z,0.50
2018-09-23T23:23:59.579Z,0.40
2018-09-23T23:26:28.705Z,0.50
2018-09-23T23:28:57.756Z,0.40
2018-09-23T23:31:26.980Z,0.30
2018-09-23T23:33:56.385Z,0.43
2018-09-23T23:36:26.033Z,0.40
2018-09-23T23:38:55.294Z,0.30
2018-09-23T23:41:24.369Z,0.30
2018-09-23T23:43:53.358Z,0.70
2018-09-23T23:46:22.310Z,0.30
2018-09-23T23:48:51.342Z,0.40
2018-09-23T23:51:20.701Z,0.40
2018-09-23T23:53:50.200Z,0.40
2018-09-23T23:56:19.152Z,0.30
2018-09-23T23:58:48.225Z,0.30
